sensor_id;sensor_type;location;lat;lon;timestamp;P1;durP1;ratioP1;P2;durP2;ratioP2
42598;SDS011;28225;42.714;23.860;2022-09-09T00:13:18;6.38;;;5.57;;
42598;SDS011;28225;42.714;23.860;2022-09-09T00:21:39;6.35;;;5.75;;
42598;SDS011;28225;42.714;23.860;2022-09-09T00:24:29;7.22;;;6.45;;
42598;SDS011;28225;42.714;23.860;2022-09-09T00:27:23;7.28;;;5.93;;
42598;SDS011;28225;42.714;23.860;2022-09-09T00:29:56;8.02;;;6.18;;
42598;SDS011;28225;42.714;23.860;2022-09-09T00:32:24;7.57;;;6.40;;
42598;SDS011;28225;42.714;23.860;2022-09-09T00:34:54;8.25;;;6.70;;
42598;SDS011;28225;42.714;23.860;2022-09-09T00:37:23;6.95;;;6.35;;
42598;SDS011;28225;42.714;23.860;2022-09-09T00:39:51;7.72;;;6.88;;
42598;SDS011;28225;42.714;23.860;2022-09-09T00:44:51;7.90;;;7.10;;
42598;SDS011;28225;42.714;23.860;2022-09-09T00:47:38;6.57;;;5.97;;
42598;SDS011;28225;42.714;23.860;2022-09-09T00:52:50;11.38;;;7.03;;
42598;SDS011;28225;42.714;23.860;2022-09-09T00:57:52;8.55;;;6.95;;
42598;SDS011;28225;42.714;23.860;2022-09-09T01:00:27;7.90;;;6.85;;
42598;SDS011;28225;42.714;23.860;2022-09-09T01:08:24;7.72;;;6.93;;
42598;SDS011;28225;42.714;23.860;2022-09-09T01:10:53;8.32;;;6.63;;
42598;SDS011;28225;42.714;23.860;2022-09-09T01:13:22;8.18;;;7.25;;
42598;SDS011;28225;42.714;23.860;2022-09-09T01:15:50;9.05;;;7.45;;
42598;SDS011;28225;42.714;23.860;2022-09-09T01:18:19;7.80;;;6.97;;
42598;SDS011;28225;42.714;23.860;2022-09-09T01:26:19;8.27;;;7.47;;
42598;SDS011;28225;42.714;23.860;2022-09-09T01:28:48;7.30;;;6.63;;
42598;SDS011;28225;42.714;23.860;2022-09-09T01:31:26;8.82;;;7.45;;
42598;SDS011;28225;42.714;23.860;2022-09-09T01:33:56;10.00;;;7.55;;
42598;SDS011;28225;42.714;23.860;2022-09-09T01:36:29;8.20;;;7.40;;
42598;SDS011;28225;42.714;23.860;2022-09-09T01:39:00;7.40;;;6.70;;
42598;SDS011;28225;42.714;23.860;2022-09-09T01:41:25;8.10;;;7.30;;
42598;SDS011;28225;42.714;23.860;2022-09-09T01:43:52;9.50;;;7.97;;
42598;SDS011;28225;42.714;23.860;2022-09-09T01:46:18;10.82;;;7.13;;
42598;SDS011;28225;42.714;23.860;2022-09-09T01:48:46;8.93;;;7.40;;
42598;SDS011;28225;42.714;23.860;2022-09-09T01:51:12;8.13;;;7.28;;
42598;SDS011;28225;42.714;23.860;2022-09-09T01:53:38;8.07;;;7.25;;
42598;SDS011;28225;42.714;23.860;2022-09-09T01:56:08;7.82;;;7.03;;
42598;SDS011;28225;42.714;23.860;2022-09-09T02:07:09;8.20;;;7.40;;
42598;SDS011;28225;42.714;23.860;2022-09-09T02:09:39;11.20;;;6.85;;
42598;SDS011;28225;42.714;23.860;2022-09-09T02:12:11;8.32;;;7.03;;
42598;SDS011;28225;42.714;23.860;2022-09-09T02:14:41;8.30;;;6.70;;
42598;SDS011;28225;42.714;23.860;2022-09-09T02:17:09;8.00;;;7.15;;
42598;SDS011;28225;42.714;23.860;2022-09-09T02:19:40;7.80;;;6.95;;
42598;SDS011;28225;42.714;23.860;2022-09-09T02:22:11;7.22;;;6.47;;
42598;SDS011;28225;42.714;23.860;2022-09-09T02:24:37;10.43;;;6.78;;
42598;SDS011;28225;42.714;23.860;2022-09-09T02:27:04;9.13;;;7.30;;
42598;SDS011;28225;42.714;23.860;2022-09-09T02:29:34;7.68;;;6.88;;
42598;SDS011;28225;42.714;23.860;2022-09-09T02:32:03;7.40;;;6.60;;
42598;SDS011;28225;42.714;23.860;2022-09-09T02:34:31;7.18;;;6.50;;
42598;SDS011;28225;42.714;23.860;2022-09-09T02:37:01;7.15;;;6.05;;
42598;SDS011;28225;42.714;23.860;2022-09-09T02:39:28;7.72;;;6.93;;
42598;SDS011;28225;42.714;23.860;2022-09-09T02:41:54;6.50;;;5.65;;
42598;SDS011;28225;42.714;23.860;2022-09-09T02:44:19;6.63;;;6.03;;
42598;SDS011;28225;42.714;23.860;2022-09-09T02:49:31;6.70;;;6.00;;
42598;SDS011;28225;42.714;23.860;2022-09-09T02:52:20;6.80;;;6.13;;
42598;SDS011;28225;42.714;23.860;2022-09-09T02:55:07;6.65;;;5.97;;
42598;SDS011;28225;42.714;23.860;2022-09-09T02:57:50;7.30;;;6.38;;
42598;SDS011;28225;42.714;23.860;2022-09-09T03:00:22;6.55;;;5.85;;
42598;SDS011;28225;42.714;23.860;2022-09-09T03:02:49;7.63;;;6.05;;
42598;SDS011;28225;42.714;23.860;2022-09-09T03:05:16;9.02;;;5.85;;
42598;SDS011;28225;42.714;23.860;2022-09-09T03:07:41;6.05;;;5.18;;
42598;SDS011;28225;42.714;23.860;2022-09-09T03:10:07;6.05;;;5.45;;
42598;SDS011;28225;42.714;23.860;2022-09-09T03:12:33;7.50;;;5.90;;
42598;SDS011;28225;42.714;23.860;2022-09-09T03:14:58;6.70;;;6.00;;
42598;SDS011;28225;42.714;23.860;2022-09-09T03:17:24;6.55;;;5.93;;
42598;SDS011;28225;42.714;23.860;2022-09-09T03:19:49;11.80;;;6.70;;
42598;SDS011;28225;42.714;23.860;2022-09-09T03:22:17;6.85;;;6.22;;
42598;SDS011;28225;42.714;23.860;2022-09-09T03:24:43;10.10;;;5.75;;
42598;SDS011;28225;42.714;23.860;2022-09-09T03:27:08;7.63;;;5.80;;
42598;SDS011;28225;42.714;23.860;2022-09-09T03:29:34;6.80;;;5.88;;
42598;SDS011;28225;42.714;23.860;2022-09-09T03:31:59;6.88;;;6.10;;
42598;SDS011;28225;42.714;23.860;2022-09-09T03:34:25;7.88;;;6.47;;
42598;SDS011;28225;42.714;23.860;2022-09-09T03:36:50;12.32;;;5.15;;
42598;SDS011;28225;42.714;23.860;2022-09-09T03:39:15;7.10;;;5.50;;
42598;SDS011;28225;42.714;23.860;2022-09-09T03:41:41;8.13;;;5.78;;
42598;SDS011;28225;42.714;23.860;2022-09-09T03:44:06;8.32;;;5.65;;
42598;SDS011;28225;42.714;23.860;2022-09-09T03:46:32;10.73;;;6.15;;
42598;SDS011;28225;42.714;23.860;2022-09-09T03:48:58;5.85;;;5.25;;
42598;SDS011;28225;42.714;23.860;2022-09-09T03:51:24;6.70;;;5.80;;
42598;SDS011;28225;42.714;23.860;2022-09-09T03:53:49;5.82;;;5.22;;
42598;SDS011;28225;42.714;23.860;2022-09-09T03:56:15;8.50;;;5.90;;
42598;SDS011;28225;42.714;23.860;2022-09-09T03:58:41;7.13;;;5.47;;
42598;SDS011;28225;42.714;23.860;2022-09-09T04:01:07;6.18;;;5.35;;
42598;SDS011;28225;42.714;23.860;2022-09-09T04:03:34;5.55;;;5.05;;
42598;SDS011;28225;42.714;23.860;2022-09-09T04:06:00;6.25;;;5.70;;
42598;SDS011;28225;42.714;23.860;2022-09-09T04:08:28;5.93;;;5.33;;
42598;SDS011;28225;42.714;23.860;2022-09-09T04:10:54;5.90;;;5.30;;
42598;SDS011;28225;42.714;23.860;2022-09-09T04:13:23;5.70;;;5.20;;
42598;SDS011;28225;42.714;23.860;2022-09-09T04:15:52;7.15;;;6.05;;
42598;SDS011;28225;42.714;23.860;2022-09-09T04:18:19;10.07;;;5.47;;
42598;SDS011;28225;42.714;23.860;2022-09-09T04:20:48;6.72;;;6.05;;
42598;SDS011;28225;42.714;23.860;2022-09-09T04:25:46;9.43;;;5.85;;
42598;SDS011;28225;42.714;23.860;2022-09-09T04:28:18;6.33;;;5.70;;
42598;SDS011;28225;42.714;23.860;2022-09-09T04:30:45;5.68;;;5.07;;
42598;SDS011;28225;42.714;23.860;2022-09-09T04:33:11;5.88;;;5.38;;
42598;SDS011;28225;42.714;23.860;2022-09-09T04:35:37;8.15;;;6.15;;
42598;SDS011;28225;42.714;23.860;2022-09-09T04:38:03;7.90;;;5.82;;
42598;SDS011;28225;42.714;23.860;2022-09-09T04:40:30;5.93;;;4.90;;
42598;SDS011;28225;42.714;23.860;2022-09-09T04:42:59;6.63;;;6.03;;
42598;SDS011;28225;42.714;23.860;2022-09-09T04:45:25;6.40;;;5.70;;
42598;SDS011;28225;42.714;23.860;2022-09-09T04:47:51;6.60;;;5.82;;
42598;SDS011;28225;42.714;23.860;2022-09-09T04:50:17;6.68;;;5.40;;
42598;SDS011;28225;42.714;23.860;2022-09-09T04:52:43;6.57;;;5.88;;
42598;SDS011;28225;42.714;23.860;2022-09-09T04:55:09;6.57;;;5.93;;
42598;SDS011;28225;42.714;23.860;2022-09-09T04:57:34;6.78;;;5.88;;
42598;SDS011;28225;42.714;23.860;2022-09-09T05:00:00;6.63;;;5.93;;
42598;SDS011;28225;42.714;23.860;2022-09-09T05:02:27;7.35;;;5.07;;
42598;SDS011;28225;42.714;23.860;2022-09-09T05:04:52;5.75;;;5.15;;
42598;SDS011;28225;42.714;23.860;2022-09-09T05:07:18;7.20;;;5.05;;
42598;SDS011;28225;42.714;23.860;2022-09-09T05:09:44;6.45;;;5.40;;
42598;SDS011;28225;42.714;23.860;2022-09-09T05:12:10;6.28;;;5.68;;
42598;SDS011;28225;42.714;23.860;2022-09-09T05:14:36;6.00;;;5.43;;
42598;SDS011;28225;42.714;23.860;2022-09-09T05:17:02;6.78;;;6.05;;
42598;SDS011;28225;42.714;23.860;2022-09-09T05:19:28;8.98;;;5.97;;
42598;SDS011;28225;42.714;23.860;2022-09-09T05:21:56;6.78;;;6.07;;
42598;SDS011;28225;42.714;23.860;2022-09-09T05:24:21;6.80;;;6.10;;
42598;SDS011;28225;42.714;23.860;2022-09-09T05:26:48;7.18;;;5.82;;
42598;SDS011;28225;42.714;23.860;2022-09-09T05:29:13;6.35;;;5.72;;
42598;SDS011;28225;42.714;23.860;2022-09-09T05:31:39;6.22;;;5.70;;
42598;SDS011;28225;42.714;23.860;2022-09-09T05:34:04;8.65;;;5.78;;
42598;SDS011;28225;42.714;23.860;2022-09-09T05:36:30;8.18;;;6.28;;
42598;SDS011;28225;42.714;23.860;2022-09-09T05:38:55;6.80;;;6.10;;
42598;SDS011;28225;42.714;23.860;2022-09-09T05:41:21;7.63;;;6.82;;
42598;SDS011;28225;42.714;23.860;2022-09-09T05:43:48;8.00;;;6.50;;
42598;SDS011;28225;42.714;23.860;2022-09-09T05:46:17;9.40;;;6.97;;
42598;SDS011;28225;42.714;23.860;2022-09-09T05:48:44;7.65;;;6.63;;
42598;SDS011;28225;42.714;23.860;2022-09-09T05:51:16;6.40;;;5.80;;
42598;SDS011;28225;42.714;23.860;2022-09-09T05:53:46;6.55;;;5.40;;
42598;SDS011;28225;42.714;23.860;2022-09-09T05:56:17;5.88;;;5.15;;
42598;SDS011;28225;42.714;23.860;2022-09-09T05:58:43;4.10;;;3.55;;
42598;SDS011;28225;42.714;23.860;2022-09-09T06:01:10;3.72;;;3.35;;
42598;SDS011;28225;42.714;23.860;2022-09-09T06:03:39;3.70;;;3.30;;
42598;SDS011;28225;42.714;23.860;2022-09-09T06:06:06;5.07;;;3.40;;
42598;SDS011;28225;42.714;23.860;2022-09-09T06:08:33;3.00;;;2.75;;
42598;SDS011;28225;42.714;23.860;2022-09-09T06:11:05;6.05;;;3.25;;
42598;SDS011;28225;42.714;23.860;2022-09-09T06:13:32;3.88;;;3.47;;
42598;SDS011;28225;42.714;23.860;2022-09-09T06:15:58;3.63;;;3.17;;
42598;SDS011;28225;42.714;23.860;2022-09-09T06:18:25;3.20;;;2.88;;
42598;SDS011;28225;42.714;23.860;2022-09-09T06:20:54;4.25;;;3.33;;
42598;SDS011;28225;42.714;23.860;2022-09-09T06:23:24;3.72;;;3.33;;
42598;SDS011;28225;42.714;23.860;2022-09-09T06:25:50;3.42;;;3.10;;
42598;SDS011;28225;42.714;23.860;2022-09-09T06:28:17;3.80;;;2.67;;
42598;SDS011;28225;42.714;23.860;2022-09-09T06:30:42;3.90;;;2.85;;
42598;SDS011;28225;42.714;23.860;2022-09-09T06:33:09;3.17;;;2.83;;
42598;SDS011;28225;42.714;23.860;2022-09-09T06:35:35;6.32;;;3.00;;
42598;SDS011;28225;42.714;23.860;2022-09-09T06:38:00;2.88;;;2.58;;
42598;SDS011;28225;42.714;23.860;2022-09-09T06:40:26;5.20;;;3.20;;
42598;SDS011;28225;42.714;23.860;2022-09-09T06:42:51;7.00;;;2.50;;
42598;SDS011;28225;42.714;23.860;2022-09-09T06:45:17;2.45;;;2.22;;
42598;SDS011;28225;42.714;23.860;2022-09-09T06:47:42;3.22;;;2.92;;
42598;SDS011;28225;42.714;23.860;2022-09-09T06:50:08;4.00;;;2.58;;
42598;SDS011;28225;42.714;23.860;2022-09-09T06:52:35;2.58;;;2.38;;
42598;SDS011;28225;42.714;23.860;2022-09-09T06:55:01;4.05;;;2.28;;
42598;SDS011;28225;42.714;23.860;2022-09-09T06:57:27;3.22;;;2.92;;
42598;SDS011;28225;42.714;23.860;2022-09-09T06:59:53;2.80;;;2.40;;
42598;SDS011;28225;42.714;23.860;2022-09-09T07:02:18;3.10;;;2.80;;
42598;SDS011;28225;42.714;23.860;2022-09-09T07:04:43;3.28;;;2.65;;
42598;SDS011;28225;42.714;23.860;2022-09-09T07:07:09;4.70;;;2.78;;
42598;SDS011;28225;42.714;23.860;2022-09-09T07:09:37;2.35;;;2.10;;
42598;SDS011;28225;42.714;23.860;2022-09-09T07:12:02;3.90;;;2.28;;
42598;SDS011;28225;42.714;23.860;2022-09-09T07:14:31;3.05;;;2.22;;
42598;SDS011;28225;42.714;23.860;2022-09-09T07:16:57;5.45;;;3.03;;
42598;SDS011;28225;42.714;23.860;2022-09-09T07:19:23;3.63;;;2.50;;
42598;SDS011;28225;42.714;23.860;2022-09-09T07:21:48;3.03;;;2.70;;
42598;SDS011;28225;42.714;23.860;2022-09-09T07:24:14;2.35;;;2.15;;
42598;SDS011;28225;42.714;23.860;2022-09-09T07:26:40;2.92;;;2.45;;
42598;SDS011;28225;42.714;23.860;2022-09-09T07:29:06;2.83;;;2.35;;
42598;SDS011;28225;42.714;23.860;2022-09-09T07:31:34;3.28;;;2.25;;
42598;SDS011;28225;42.714;23.860;2022-09-09T07:34:01;2.70;;;2.40;;
42598;SDS011;28225;42.714;23.860;2022-09-09T07:36:28;2.33;;;2.13;;
42598;SDS011;28225;42.714;23.860;2022-09-09T07:39:02;2.58;;;2.38;;
42598;SDS011;28225;42.714;23.860;2022-09-09T07:43:59;3.63;;;2.30;;
42598;SDS011;28225;42.714;23.860;2022-09-09T07:46:34;2.90;;;2.17;;
42598;SDS011;28225;42.714;23.860;2022-09-09T07:49:00;1.73;;;1.63;;
42598;SDS011;28225;42.714;23.860;2022-09-09T07:51:31;1.92;;;1.83;;
42598;SDS011;28225;42.714;23.860;2022-09-09T07:54:01;2.00;;;1.90;;
42598;SDS011;28225;42.714;23.860;2022-09-09T07:56:30;2.72;;;2.13;;
42598;SDS011;28225;42.714;23.860;2022-09-09T07:58:56;2.50;;;2.30;;
42598;SDS011;28225;42.714;23.860;2022-09-09T08:03:55;2.22;;;1.95;;
42598;SDS011;28225;42.714;23.860;2022-09-09T08:06:24;2.10;;;1.90;;
42598;SDS011;28225;42.714;23.860;2022-09-09T08:08:51;3.20;;;2.08;;
42598;SDS011;28225;42.714;23.860;2022-09-09T08:11:17;1.90;;;1.75;;
42598;SDS011;28225;42.714;23.860;2022-09-09T08:13:43;1.80;;;1.70;;
42598;SDS011;28225;42.714;23.860;2022-09-09T08:16:13;2.10;;;1.90;;
42598;SDS011;28225;42.714;23.860;2022-09-09T08:18:40;4.45;;;1.90;;
42598;SDS011;28225;42.714;23.860;2022-09-09T08:21:06;1.88;;;1.75;;
42598;SDS011;28225;42.714;23.860;2022-09-09T08:23:42;1.95;;;1.65;;
42598;SDS011;28225;42.714;23.860;2022-09-09T08:26:12;2.08;;;1.88;;
42598;SDS011;28225;42.714;23.860;2022-09-09T08:28:39;1.90;;;1.80;;
42598;SDS011;28225;42.714;23.860;2022-09-09T08:31:06;1.98;;;1.77;;
42598;SDS011;28225;42.714;23.860;2022-09-09T08:33:32;4.22;;;1.77;;
42598;SDS011;28225;42.714;23.860;2022-09-09T08:35:58;2.25;;;1.67;;
42598;SDS011;28225;42.714;23.860;2022-09-09T08:38:24;2.28;;;1.95;;
42598;SDS011;28225;42.714;23.860;2022-09-09T08:40:49;2.50;;;1.63;;
42598;SDS011;28225;42.714;23.860;2022-09-09T08:43:19;1.42;;;1.10;;
42598;SDS011;28225;42.714;23.860;2022-09-09T08:46:30;1.92;;;1.63;;
42598;SDS011;28225;42.714;23.860;2022-09-09T08:48:43;1.88;;;1.60;;
42598;SDS011;28225;42.714;23.860;2022-09-09T08:51:32;2.15;;;1.70;;
42598;SDS011;28225;42.714;23.860;2022-09-09T08:53:58;2.38;;;1.73;;
42598;SDS011;28225;42.714;23.860;2022-09-09T08:56:25;1.38;;;1.27;;
42598;SDS011;28225;42.714;23.860;2022-09-09T08:58:52;1.45;;;1.35;;
42598;SDS011;28225;42.714;23.860;2022-09-09T09:12:24;2.47;;;1.90;;
42598;SDS011;28225;42.714;23.860;2022-09-09T09:14:51;1.52;;;1.42;;
42598;SDS011;28225;42.714;23.860;2022-09-09T09:17:18;1.92;;;1.73;;
42598;SDS011;28225;42.714;23.860;2022-09-09T09:19:45;2.73;;;1.57;;
42598;SDS011;28225;42.714;23.860;2022-09-09T09:27:12;1.60;;;1.50;;
42598;SDS011;28225;42.714;23.860;2022-09-09T09:29:39;2.17;;;1.98;;
42598;SDS011;28225;42.714;23.860;2022-09-09T09:32:05;2.67;;;1.35;;
42598;SDS011;28225;42.714;23.860;2022-09-09T09:34:33;1.70;;;1.55;;
42598;SDS011;28225;42.714;23.860;2022-09-09T09:36:59;1.55;;;1.45;;
42598;SDS011;28225;42.714;23.860;2022-09-09T09:39:30;1.55;;;1.45;;
42598;SDS011;28225;42.714;23.860;2022-09-09T09:42:35;2.35;;;1.90;;
42598;SDS011;28225;42.714;23.860;2022-09-09T09:44:53;1.60;;;1.50;;
42598;SDS011;28225;42.714;23.860;2022-09-09T09:47:22;2.10;;;1.48;;
42598;SDS011;28225;42.714;23.860;2022-09-09T09:50:15;1.63;;;1.52;;
42598;SDS011;28225;42.714;23.860;2022-09-09T09:52:51;3.30;;;1.90;;
42598;SDS011;28225;42.714;23.860;2022-09-09T09:55:19;1.60;;;1.50;;
42598;SDS011;28225;42.714;23.860;2022-09-09T09:57:45;1.73;;;1.63;;
42598;SDS011;28225;42.714;23.860;2022-09-09T10:00:15;2.13;;;1.92;;
42598;SDS011;28225;42.714;23.860;2022-09-09T10:02:43;2.03;;;1.77;;
42598;SDS011;28225;42.714;23.860;2022-09-09T10:19:15;2.85;;;2.08;;
42598;SDS011;28225;42.714;23.860;2022-09-09T10:21:57;3.38;;;2.15;;
42598;SDS011;28225;42.714;23.860;2022-09-09T10:24:32;1.90;;;1.80;;
42598;SDS011;28225;42.714;23.860;2022-09-09T10:57:42;2.95;;;2.60;;
42598;SDS011;28225;42.714;23.860;2022-09-09T11:00:17;2.55;;;2.35;;
42598;SDS011;28225;42.714;23.860;2022-09-09T11:02:44;2.78;;;2.42;;
42598;SDS011;28225;42.714;23.860;2022-09-09T11:05:17;2.03;;;1.90;;
42598;SDS011;28225;42.714;23.860;2022-09-09T11:07:48;1.85;;;1.70;;
42598;SDS011;28225;42.714;23.860;2022-09-09T11:12:49;2.33;;;2.13;;
42598;SDS011;28225;42.714;23.860;2022-09-09T11:17:46;2.25;;;2.05;;
42598;SDS011;28225;42.714;23.860;2022-09-09T11:20:23;2.13;;;1.92;;
42598;SDS011;28225;42.714;23.860;2022-09-09T11:25:35;4.07;;;2.53;;
42598;SDS011;28225;42.714;23.860;2022-09-09T11:42:16;3.63;;;2.72;;
42598;SDS011;28225;42.714;23.860;2022-09-09T11:44:45;3.97;;;2.30;;
42598;SDS011;28225;42.714;23.860;2022-09-09T11:47:26;6.30;;;2.58;;
42598;SDS011;28225;42.714;23.860;2022-09-09T11:52:43;3.70;;;2.50;;
42598;SDS011;28225;42.714;23.860;2022-09-09T11:55:29;3.30;;;2.15;;
42598;SDS011;28225;42.714;23.860;2022-09-09T11:57:58;3.22;;;3.03;;
42598;SDS011;28225;42.714;23.860;2022-09-09T12:00:49;2.47;;;2.20;;
42598;SDS011;28225;42.714;23.860;2022-09-09T12:06:14;2.33;;;2.10;;
42598;SDS011;28225;42.714;23.860;2022-09-09T12:08:43;2.58;;;2.38;;
42598;SDS011;28225;42.714;23.860;2022-09-09T12:11:11;3.45;;;2.53;;
42598;SDS011;28225;42.714;23.860;2022-09-09T12:13:37;5.53;;;2.10;;
42598;SDS011;28225;42.714;23.860;2022-09-09T12:16:02;3.13;;;2.33;;
42598;SDS011;28225;42.714;23.860;2022-09-09T12:18:37;3.50;;;2.92;;
42598;SDS011;28225;42.714;23.860;2022-09-09T12:21:14;4.55;;;2.78;;
42598;SDS011;28225;42.714;23.860;2022-09-09T12:28:50;4.15;;;2.75;;
42598;SDS011;28225;42.714;23.860;2022-09-09T12:34:06;4.72;;;2.78;;
42598;SDS011;28225;42.714;23.860;2022-09-09T12:36:42;3.78;;;2.97;;
42598;SDS011;28225;42.714;23.860;2022-09-09T12:39:15;2.90;;;2.20;;
42598;SDS011;28225;42.714;23.860;2022-09-09T12:41:50;3.63;;;2.95;;
42598;SDS011;28225;42.714;23.860;2022-09-09T12:44:22;2.80;;;2.60;;
42598;SDS011;28225;42.714;23.860;2022-09-09T12:46:49;2.40;;;2.22;;
42598;SDS011;28225;42.714;23.860;2022-09-09T12:49:34;3.03;;;2.72;;
42598;SDS011;28225;42.714;23.860;2022-09-09T12:52:08;3.65;;;3.03;;
42598;SDS011;28225;42.714;23.860;2022-09-09T12:54:42;2.67;;;2.33;;
42598;SDS011;28225;42.714;23.860;2022-09-09T12:57:13;3.30;;;3.00;;
42598;SDS011;28225;42.714;23.860;2022-09-09T12:59:40;2.80;;;2.53;;
42598;SDS011;28225;42.714;23.860;2022-09-09T13:07:49;5.38;;;2.58;;
42598;SDS011;28225;42.714;23.860;2022-09-09T13:10:15;4.03;;;2.28;;
42598;SDS011;28225;42.714;23.860;2022-09-09T13:12:51;2.40;;;2.20;;
42598;SDS011;28225;42.714;23.860;2022-09-09T13:15:21;5.03;;;2.65;;
42598;SDS011;28225;42.714;23.860;2022-09-09T13:17:57;2.83;;;2.28;;
42598;SDS011;28225;42.714;23.860;2022-09-09T13:20:26;2.70;;;2.40;;
42598;SDS011;28225;42.714;23.860;2022-09-09T13:22:52;3.10;;;2.45;;
42598;SDS011;28225;42.714;23.860;2022-09-09T13:25:20;2.53;;;2.33;;
42598;SDS011;28225;42.714;23.860;2022-09-09T13:30:22;3.90;;;2.92;;
42598;SDS011;28225;42.714;23.860;2022-09-09T13:35:49;2.45;;;2.25;;
42598;SDS011;28225;42.714;23.860;2022-09-09T13:38:18;3.60;;;2.63;;
42598;SDS011;28225;42.714;23.860;2022-09-09T13:41:00;3.35;;;2.20;;
42598;SDS011;28225;42.714;23.860;2022-09-09T13:43:30;2.80;;;2.58;;
42598;SDS011;28225;42.714;23.860;2022-09-09T13:46:04;3.35;;;1.98;;
42598;SDS011;28225;42.714;23.860;2022-09-09T13:48:31;3.20;;;2.75;;
42598;SDS011;28225;42.714;23.860;2022-09-09T13:51:03;2.63;;;2.42;;
42598;SDS011;28225;42.714;23.860;2022-09-09T13:53:32;2.38;;;2.17;;
42598;SDS011;28225;42.714;23.860;2022-09-09T13:55:58;2.72;;;2.50;;
42598;SDS011;28225;42.714;23.860;2022-09-09T13:58:24;2.80;;;2.55;;
42598;SDS011;28225;42.714;23.860;2022-09-09T14:00:50;2.40;;;2.20;;
42598;SDS011;28225;42.714;23.860;2022-09-09T14:03:17;2.28;;;2.08;;
42598;SDS011;28225;42.714;23.860;2022-09-09T14:05:43;3.58;;;2.22;;
42598;SDS011;28225;42.714;23.860;2022-09-09T14:08:11;2.17;;;1.98;;
42598;SDS011;28225;42.714;23.860;2022-09-09T14:10:41;3.55;;;2.10;;
42598;SDS011;28225;42.714;23.860;2022-09-09T14:13:07;4.97;;;2.58;;
42598;SDS011;28225;42.714;23.860;2022-09-09T14:15:33;2.97;;;2.70;;
42598;SDS011;28225;42.714;23.860;2022-09-09T14:17:58;2.95;;;2.50;;
42598;SDS011;28225;42.714;23.860;2022-09-09T14:20:24;4.68;;;2.67;;
42598;SDS011;28225;42.714;23.860;2022-09-09T14:22:49;2.78;;;2.47;;
42598;SDS011;28225;42.714;23.860;2022-09-09T14:25:15;3.55;;;2.45;;
42598;SDS011;28225;42.714;23.860;2022-09-09T14:27:40;2.45;;;2.25;;
42598;SDS011;28225;42.714;23.860;2022-09-09T14:30:07;2.90;;;2.50;;
42598;SDS011;28225;42.714;23.860;2022-09-09T14:32:33;2.90;;;2.45;;
42598;SDS011;28225;42.714;23.860;2022-09-09T14:34:59;2.17;;;1.98;;
42598;SDS011;28225;42.714;23.860;2022-09-09T14:37:24;3.10;;;2.83;;
42598;SDS011;28225;42.714;23.860;2022-09-09T14:39:50;3.17;;;1.98;;
42598;SDS011;28225;42.714;23.860;2022-09-09T14:42:16;3.35;;;2.65;;
42598;SDS011;28225;42.714;23.860;2022-09-09T14:44:42;2.47;;;2.28;;
42598;SDS011;28225;42.714;23.860;2022-09-09T14:47:07;3.05;;;2.75;;
42598;SDS011;28225;42.714;23.860;2022-09-09T14:49:34;2.97;;;2.72;;
42598;SDS011;28225;42.714;23.860;2022-09-09T14:52:00;2.75;;;2.20;;
42598;SDS011;28225;42.714;23.860;2022-09-09T14:54:26;2.47;;;2.25;;
42598;SDS011;28225;42.714;23.860;2022-09-09T14:56:51;2.70;;;2.35;;
42598;SDS011;28225;42.714;23.860;2022-09-09T14:59:17;2.55;;;2.30;;
42598;SDS011;28225;42.714;23.860;2022-09-09T15:01:42;2.50;;;1.73;;
42598;SDS011;28225;42.714;23.860;2022-09-09T15:04:10;3.20;;;2.53;;
42598;SDS011;28225;42.714;23.860;2022-09-09T15:09:04;2.83;;;2.20;;
42598;SDS011;28225;42.714;23.860;2022-09-09T15:11:31;3.33;;;2.00;;
42598;SDS011;28225;42.714;23.860;2022-09-09T15:14:02;3.80;;;2.40;;
42598;SDS011;28225;42.714;23.860;2022-09-09T15:16:29;5.65;;;2.35;;
42598;SDS011;28225;42.714;23.860;2022-09-09T15:18:55;2.83;;;2.45;;
42598;SDS011;28225;42.714;23.860;2022-09-09T15:21:23;4.63;;;2.50;;
42598;SDS011;28225;42.714;23.860;2022-09-09T15:23:50;2.70;;;2.08;;
42598;SDS011;28225;42.714;23.860;2022-09-09T15:26:16;5.78;;;2.60;;
42598;SDS011;28225;42.714;23.860;2022-09-09T15:28:42;3.55;;;2.55;;
42598;SDS011;28225;42.714;23.860;2022-09-09T15:31:16;2.58;;;2.38;;
42598;SDS011;28225;42.714;23.860;2022-09-09T15:33:59;2.58;;;2.38;;
42598;SDS011;28225;42.714;23.860;2022-09-09T15:36:30;2.28;;;2.05;;
42598;SDS011;28225;42.714;23.860;2022-09-09T15:38:59;3.45;;;2.28;;
42598;SDS011;28225;42.714;23.860;2022-09-09T15:41:26;2.55;;;2.28;;
42598;SDS011;28225;42.714;23.860;2022-09-09T15:43:54;2.70;;;2.50;;
42598;SDS011;28225;42.714;23.860;2022-09-09T15:46:34;3.78;;;2.47;;
42598;SDS011;28225;42.714;23.860;2022-09-09T15:49:12;3.60;;;2.25;;
42598;SDS011;28225;42.714;23.860;2022-09-09T15:51:39;6.80;;;2.70;;
42598;SDS011;28225;42.714;23.860;2022-09-09T15:54:06;12.82;;;4.15;;
42598;SDS011;28225;42.714;23.860;2022-09-09T15:56:32;8.90;;;3.00;;
42598;SDS011;28225;42.714;23.860;2022-09-09T15:58:58;2.67;;;2.25;;
42598;SDS011;28225;42.714;23.860;2022-09-09T16:01:25;2.42;;;2.22;;
42598;SDS011;28225;42.714;23.860;2022-09-09T16:03:51;4.15;;;2.45;;
42598;SDS011;28225;42.714;23.860;2022-09-09T16:06:18;3.10;;;2.85;;
42598;SDS011;28225;42.714;23.860;2022-09-09T16:08:46;3.05;;;2.60;;
42598;SDS011;28225;42.714;23.860;2022-09-09T16:13:45;4.25;;;2.83;;
42598;SDS011;28225;42.714;23.860;2022-09-09T16:16:12;5.40;;;2.60;;
42598;SDS011;28225;42.714;23.860;2022-09-09T16:18:39;4.22;;;3.35;;
42598;SDS011;28225;42.714;23.860;2022-09-09T16:21:14;4.32;;;2.70;;
42598;SDS011;28225;42.714;23.860;2022-09-09T16:23:41;5.70;;;3.58;;
42598;SDS011;28225;42.714;23.860;2022-09-09T16:26:08;2.55;;;2.35;;
42598;SDS011;28225;42.714;23.860;2022-09-09T16:31:03;3.78;;;2.92;;
42598;SDS011;28225;42.714;23.860;2022-09-09T16:35:55;7.90;;;3.50;;
42598;SDS011;28225;42.714;23.860;2022-09-09T16:38:21;6.90;;;3.28;;
42598;SDS011;28225;42.714;23.860;2022-09-09T16:40:46;7.75;;;4.82;;
42598;SDS011;28225;42.714;23.860;2022-09-09T16:43:13;7.20;;;4.55;;
42598;SDS011;28225;42.714;23.860;2022-09-09T16:45:44;5.40;;;3.38;;
42598;SDS011;28225;42.714;23.860;2022-09-09T16:48:10;5.85;;;3.42;;
42598;SDS011;28225;42.714;23.860;2022-09-09T16:50:36;3.10;;;2.80;;
42598;SDS011;28225;42.714;23.860;2022-09-09T16:53:03;3.00;;;2.75;;
42598;SDS011;28225;42.714;23.860;2022-09-09T16:55:31;3.10;;;2.53;;
42598;SDS011;28225;42.714;23.860;2022-09-09T16:57:57;8.82;;;3.63;;
42598;SDS011;28225;42.714;23.860;2022-09-09T17:00:22;4.53;;;2.83;;
42598;SDS011;28225;42.714;23.860;2022-09-09T17:02:48;3.50;;;3.17;;
42598;SDS011;28225;42.714;23.860;2022-09-09T17:05:14;2.58;;;2.13;;
42598;SDS011;28225;42.714;23.860;2022-09-09T17:07:39;4.75;;;3.13;;
42598;SDS011;28225;42.714;23.860;2022-09-09T17:10:05;3.35;;;3.05;;
42598;SDS011;28225;42.714;23.860;2022-09-09T17:12:31;3.00;;;2.70;;
42598;SDS011;28225;42.714;23.860;2022-09-09T17:14:57;3.20;;;2.67;;
42598;SDS011;28225;42.714;23.860;2022-09-09T17:17:24;5.22;;;3.08;;
42598;SDS011;28225;42.714;23.860;2022-09-09T17:19:51;3.10;;;2.80;;
42598;SDS011;28225;42.714;23.860;2022-09-09T17:22:17;3.55;;;3.22;;
42598;SDS011;28225;42.714;23.860;2022-09-09T17:24:43;6.00;;;3.15;;
42598;SDS011;28225;42.714;23.860;2022-09-09T17:27:09;5.80;;;2.92;;
42598;SDS011;28225;42.714;23.860;2022-09-09T17:29:34;3.70;;;2.90;;
42598;SDS011;28225;42.714;23.860;2022-09-09T17:32:01;4.25;;;3.30;;
42598;SDS011;28225;42.714;23.860;2022-09-09T17:34:27;7.95;;;3.42;;